sensor_id;sensor_type;location;lat;lon;timestamp;temperature;humidity
1766;DHT22;880;52.452;8.656;2023-08-01T00:00:47;16.80;99.90
1766;DHT22;880;52.452;8.656;2023-08-01T00:03:14;16.80;99.90
1766;DHT22;880;52.452;8.656;2023-08-01T00:05:41;16.70;99.90
1766;DHT22;880;52.452;8.656;2023-08-01T00:08:11;16.80;99.90
1766;DHT22;880;52.452;8.656;2023-08-01T00:10:40;16.70;99.90
1766;DHT22;880;52.452;8.656;2023-08-01T00:13:08;16.70;99.90
1766;DHT22;880;52.452;8.656;2023-08-01T00:15:35;16.70;99.90
1766;DHT22;880;52.452;8.656;2023-08-01T00:18:02;16.70;99.90
1766;DHT22;880;52.452;8.656;2023-08-01T00:20:30;16.70;99.90
1766;DHT22;880;52.452;8.656;2023-08-01T00:22:57;16.70;99.90
1766;DHT22;880;52.452;8.656;2023-08-01T00:25:24;16.70;99.90
1766;DHT22;880;52.452;8.656;2023-08-01T00:27:51;16.70;99.90
1766;DHT22;880;52.452;8.656;2023-08-01T00:30:18;16.70;99.90
1766;DHT22;880;52.452;8.656;2023-08-01T00:32:51;16.70;99.90
1766;DHT22;880;52.452;8.656;2023-08-01T00:35:18;16.70;99.90
1766;DHT22;880;52.452;8.656;2023-08-01T00:37:45;16.70;99.90
1766;DHT22;880;52.452;8.656;2023-08-01T00:40:12;16.70;99.90
1766;DHT22;880;52.452;8.656;2023-08-01T00:42:40;16.70;99.90
1766;DHT22;880;52.452;8.656;2023-08-01T00:45:07;16.70;99.90
1766;DHT22;880;52.452;8.656;2023-08-01T00:47:35;16.70;99.90
1766;DHT22;880;52.452;8.656;2023-08-01T00:50:02;16.70;99.90
1766;DHT22;880;52.452;8.656;2023-08-01T00:52:30;16.70;99.90
1766;DHT22;880;52.452;8.656;2023-08-01T00:54:57;16.80;99.90
1766;DHT22;880;52.452;8.656;2023-08-01T00:57:24;16.70;99.90
1766;DHT22;880;52.452;8.656;2023-08-01T00:59:51;16.80;99.90
1766;DHT22;880;52.452;8.656;2023-08-01T01:02:18;16.80;99.90
1766;DHT22;880;52.452;8.656;2023-08-01T01:04:46;16.80;99.90
1766;DHT22;880;52.452;8.656;2023-08-01T01:07:13;16.90;99.90
1766;DHT22;880;52.452;8.656;2023-08-01T01:09:41;16.80;99.90
1766;DHT22;880;52.452;8.656;2023-08-01T01:12:08;16.80;99.90
1766;DHT22;880;52.452;8.656;2023-08-01T01:14:38;16.80;99.90
1766;DHT22;880;52.452;8.656;2023-08-01T01:17:06;16.80;99.90
1766;DHT22;880;52.452;8.656;2023-08-01T01:19:33;16.80;99.90
1766;DHT22;880;52.452;8.656;2023-08-01T01:22:02;16.80;99.90
1766;DHT22;880;52.452;8.656;2023-08-01T01:24:32;16.80;99.90
1766;DHT22;880;52.452;8.656;2023-08-01T01:27:01;16.80;99.90
1766;DHT22;880;52.452;8.656;2023-08-01T01:29:32;16.80;99.90
1766;DHT22;880;52.452;8.656;2023-08-01T01:32:00;16.80;99.90
1766;DHT22;880;52.452;8.656;2023-08-01T01:34:30;16.80;99.90
1766;DHT22;880;52.452;8.656;2023-08-01T01:36:57;16.80;99.90
1766;DHT22;880;52.452;8.656;2023-08-01T01:39:24;16.80;99.90
1766;DHT22;880;52.452;8.656;2023-08-01T01:41:51;16.80;99.90
1766;DHT22;880;52.452;8.656;2023-08-01T01:44:18;16.70;99.90
1766;DHT22;880;52.452;8.656;2023-08-01T01:46:45;16.70;99.90
1766;DHT22;880;52.452;8.656;2023-08-01T01:49:13;16.70;99.90
1766;DHT22;880;52.452;8.656;2023-08-01T01:51:40;16.70;99.90
1766;DHT22;880;52.452;8.656;2023-08-01T01:54:07;16.70;99.90
1766;DHT22;880;52.452;8.656;2023-08-01T01:56:34;16.70;99.90
1766;DHT22;880;52.452;8.656;2023-08-01T01:59:02;16.60;99.90
1766;DHT22;880;52.452;8.656;2023-08-01T02:01:32;16.60;99.90
1766;DHT22;880;52.452;8.656;2023-08-01T02:03:59;16.60;99.90
1766;DHT22;880;52.452;8.656;2023-08-01T02:06:26;16.50;99.90
1766;DHT22;880;52.452;8.656;2023-08-01T02:08:54;16.50;99.90
1766;DHT22;880;52.452;8.656;2023-08-01T02:11:23;16.50;99.90
1766;DHT22;880;52.452;8.656;2023-08-01T02:13:50;16.50;99.90
1766;DHT22;880;52.452;8.656;2023-08-01T02:16:17;16.50;99.90
1766;DHT22;880;52.452;8.656;2023-08-01T02:18:44;16.50;99.90
1766;DHT22;880;52.452;8.656;2023-08-01T02:21:12;16.40;99.90
1766;DHT22;880;52.452;8.656;2023-08-01T02:23:39;16.40;99.90
1766;DHT22;880;52.452;8.656;2023-08-01T02:26:06;16.40;99.90
1766;DHT22;880;52.452;8.656;2023-08-01T02:28:34;16.40;99.90
1766;DHT22;880;52.452;8.656;2023-08-01T02:31:02;16.40;99.90
1766;DHT22;880;52.452;8.656;2023-08-01T02:33:29;16.40;99.90
1766;DHT22;880;52.452;8.656;2023-08-01T02:35:56;16.30;99.90
1766;DHT22;880;52.452;8.656;2023-08-01T02:38:23;16.30;99.90
1766;DHT22;880;52.452;8.656;2023-08-01T02:40:50;16.20;99.90
1766;DHT22;880;52.452;8.656;2023-08-01T02:43:17;16.20;99.90
1766;DHT22;880;52.452;8.656;2023-08-01T02:45:45;16.20;99.90
1766;DHT22;880;52.452;8.656;2023-08-01T02:48:12;16.20;99.90
1766;DHT22;880;52.452;8.656;2023-08-01T02:50:39;16.20;99.90
1766;DHT22;880;52.452;8.656;2023-08-01T02:53:06;16.20;99.90
1766;DHT22;880;52.452;8.656;2023-08-01T02:55:33;16.20;99.90
1766;DHT22;880;52.452;8.656;2023-08-01T02:58:00;16.10;99.90
1766;DHT22;880;52.452;8.656;2023-08-01T03:00:28;16.10;99.90
1766;DHT22;880;52.452;8.656;2023-08-01T03:02:55;16.10;99.90
1766;DHT22;880;52.452;8.656;2023-08-01T03:05:23;16.10;99.90
1766;DHT22;880;52.452;8.656;2023-08-01T03:07:50;16.00;99.90
1766;DHT22;880;52.452;8.656;2023-08-01T03:10:17;16.00;99.90
1766;DHT22;880;52.452;8.656;2023-08-01T03:13:02;16.00;99.90
1766;DHT22;880;52.452;8.656;2023-08-01T03:15:29;15.90;99.90
1766;DHT22;880;52.452;8.656;2023-08-01T03:17:56;15.90;99.90
1766;DHT22;880;52.452;8.656;2023-08-01T03:20:23;15.90;99.90
1766;DHT22;880;52.452;8.656;2023-08-01T03:22:50;16.00;99.90
1766;DHT22;880;52.452;8.656;2023-08-01T03:25:17;16.00;99.90
1766;DHT22;880;52.452;8.656;2023-08-01T03:27:44;16.00;99.90
1766;DHT22;880;52.452;8.656;2023-08-01T03:30:11;16.00;99.90
1766;DHT22;880;52.452;8.656;2023-08-01T03:32:39;16.00;99.90
1766;DHT22;880;52.452;8.656;2023-08-01T03:35:07;16.00;99.90
1766;DHT22;880;52.452;8.656;2023-08-01T03:37:34;16.00;99.90
1766;DHT22;880;52.452;8.656;2023-08-01T03:40:02;15.90;99.90
1766;DHT22;880;52.452;8.656;2023-08-01T03:42:29;15.90;99.90
1766;DHT22;880;52.452;8.656;2023-08-01T03:44:57;15.90;99.90
1766;DHT22;880;52.452;8.656;2023-08-01T03:47:24;15.90;99.90
1766;DHT22;880;52.452;8.656;2023-08-01T03:49:51;15.90;99.90
1766;DHT22;880;52.452;8.656;2023-08-01T03:52:18;15.90;99.90
1766;DHT22;880;52.452;8.656;2023-08-01T03:54:46;15.90;99.90
1766;DHT22;880;52.452;8.656;2023-08-01T03:57:14;15.90;99.90
1766;DHT22;880;52.452;8.656;2023-08-01T03:59:41;15.80;99.90
1766;DHT22;880;52.452;8.656;2023-08-01T04:02:09;15.80;99.90
1766;DHT22;880;52.452;8.656;2023-08-01T04:04:36;15.80;99.90
1766;DHT22;880;52.452;8.656;2023-08-01T04:07:03;15.70;99.90
1766;DHT22;880;52.452;8.656;2023-08-01T04:09:30;15.80;99.90
1766;DHT22;880;52.452;8.656;2023-08-01T04:11:57;15.80;99.90
1766;DHT22;880;52.452;8.656;2023-08-01T04:14:24;15.80;99.90
1766;DHT22;880;52.452;8.656;2023-08-01T04:16:51;15.80;99.90
1766;DHT22;880;52.452;8.656;2023-08-01T04:19:19;15.80;99.90
1766;DHT22;880;52.452;8.656;2023-08-01T04:21:49;15.90;99.90
1766;DHT22;880;52.452;8.656;2023-08-01T04:24:16;15.90;99.90
1766;DHT22;880;52.452;8.656;2023-08-01T04:26:43;15.90;99.90
1766;DHT22;880;52.452;8.656;2023-08-01T04:29:10;15.90;99.90
1766;DHT22;880;52.452;8.656;2023-08-01T04:31:37;15.90;99.90
1766;DHT22;880;52.452;8.656;2023-08-01T04:34:04;15.90;99.90
1766;DHT22;880;52.452;8.656;2023-08-01T04:36:31;15.90;99.90
1766;DHT22;880;52.452;8.656;2023-08-01T04:38:58;15.90;99.90
1766;DHT22;880;52.452;8.656;2023-08-01T04:41:25;16.00;99.90
1766;DHT22;880;52.452;8.656;2023-08-01T04:43:53;16.00;99.90
1766;DHT22;880;52.452;8.656;2023-08-01T04:46:20;15.90;99.90
1766;DHT22;880;52.452;8.656;2023-08-01T04:48:50;16.00;99.90
1766;DHT22;880;52.452;8.656;2023-08-01T04:51:17;16.00;99.90
1766;DHT22;880;52.452;8.656;2023-08-01T04:53:52;16.00;99.90
1766;DHT22;880;52.452;8.656;2023-08-01T04:56:19;16.00;99.90
1766;DHT22;880;52.452;8.656;2023-08-01T04:58:46;16.10;99.90
1766;DHT22;880;52.452;8.656;2023-08-01T05:01:14;16.10;99.90
1766;DHT22;880;52.452;8.656;2023-08-01T05:03:41;16.10;99.90
1766;DHT22;880;52.452;8.656;2023-08-01T05:06:08;16.10;99.90
1766;DHT22;880;52.452;8.656;2023-08-01T05:08:35;16.00;99.90
1766;DHT22;880;52.452;8.656;2023-08-01T05:11:02;16.10;99.90
1766;DHT22;880;52.452;8.656;2023-08-01T05:13:29;16.00;99.90
1766;DHT22;880;52.452;8.656;2023-08-01T05:15:56;16.10;99.90
1766;DHT22;880;52.452;8.656;2023-08-01T05:18:23;16.10;99.90
1766;DHT22;880;52.452;8.656;2023-08-01T05:20:53;16.10;99.90
1766;DHT22;880;52.452;8.656;2023-08-01T05:23:20;16.10;99.90
1766;DHT22;880;52.452;8.656;2023-08-01T05:25:47;16.10;99.90
1766;DHT22;880;52.452;8.656;2023-08-01T05:28:14;16.20;99.90
1766;DHT22;880;52.452;8.656;2023-08-01T05:30:42;16.20;99.90
1766;DHT22;880;52.452;8.656;2023-08-01T05:33:09;16.20;99.90
1766;DHT22;880;52.452;8.656;2023-08-01T05:35:36;16.20;99.90
1766;DHT22;880;52.452;8.656;2023-08-01T05:38:03;16.20;99.90
1766;DHT22;880;52.452;8.656;2023-08-01T05:40:30;16.20;99.90
1766;DHT22;880;52.452;8.656;2023-08-01T05:42:57;16.20;99.90
1766;DHT22;880;52.452;8.656;2023-08-01T05:45:24;16.30;99.90
1766;DHT22;880;52.452;8.656;2023-08-01T05:47:51;16.30;99.90
1766;DHT22;880;52.452;8.656;2023-08-01T05:50:18;16.30;99.90
1766;DHT22;880;52.452;8.656;2023-08-01T05:52:45;16.40;99.90
1766;DHT22;880;52.452;8.656;2023-08-01T05:55:12;16.30;99.90
1766;DHT22;880;52.452;8.656;2023-08-01T05:57:39;16.40;99.90
1766;DHT22;880;52.452;8.656;2023-08-01T06:00:06;16.40;99.90
1766;DHT22;880;52.452;8.656;2023-08-01T06:02:39;16.40;99.90
1766;DHT22;880;52.452;8.656;2023-08-01T06:05:07;16.50;99.90
1766;DHT22;880;52.452;8.656;2023-08-01T06:07:34;16.50;99.90
1766;DHT22;880;52.452;8.656;2023-08-01T06:10:01;16.50;99.90
1766;DHT22;880;52.452;8.656;2023-08-01T06:12:28;16.60;99.90
1766;DHT22;880;52.452;8.656;2023-08-01T06:14:55;16.50;99.90
1766;DHT22;880;52.452;8.656;2023-08-01T06:17:22;16.50;99.90
1766;DHT22;880;52.452;8.656;2023-08-01T06:19:49;16.60;99.90
1766;DHT22;880;52.452;8.656;2023-08-01T06:22:17;16.60;99.90
1766;DHT22;880;52.452;8.656;2023-08-01T06:24:44;16.60;99.90
1766;DHT22;880;52.452;8.656;2023-08-01T06:27:11;16.60;99.90
1766;DHT22;880;52.452;8.656;2023-08-01T06:29:39;16.50;99.90
1766;DHT22;880;52.452;8.656;2023-08-01T06:32:06;16.50;99.90
1766;DHT22;880;52.452;8.656;2023-08-01T06:34:33;16.60;99.90
1766;DHT22;880;52.452;8.656;2023-08-01T06:37:00;16.60;99.90
1766;DHT22;880;52.452;8.656;2023-08-01T06:39:27;16.70;99.90
1766;DHT22;880;52.452;8.656;2023-08-01T06:41:54;16.70;99.90
1766;DHT22;880;52.452;8.656;2023-08-01T06:44:21;16.80;99.90
1766;DHT22;880;52.452;8.656;2023-08-01T06:46:48;16.80;99.90
1766;DHT22;880;52.452;8.656;2023-08-01T06:49:15;16.80;99.90
1766;DHT22;880;52.452;8.656;2023-08-01T06:51:43;16.90;99.90
1766;DHT22;880;52.452;8.656;2023-08-01T06:54:10;16.90;99.90
1766;DHT22;880;52.452;8.656;2023-08-01T06:56:37;16.90;99.90
1766;DHT22;880;52.452;8.656;2023-08-01T06:59:04;17.00;99.90
1766;DHT22;880;52.452;8.656;2023-08-01T07:01:32;17.00;99.90
1766;DHT22;880;52.452;8.656;2023-08-01T07:03:59;17.00;99.90
1766;DHT22;880;52.452;8.656;2023-08-01T07:06:26;17.00;99.90
1766;DHT22;880;52.452;8.656;2023-08-01T07:08:53;17.00;99.90
1766;DHT22;880;52.452;8.656;2023-08-01T07:11:20;17.10;99.90
1766;DHT22;880;52.452;8.656;2023-08-01T07:13:47;17.10;99.90
1766;DHT22;880;52.452;8.656;2023-08-01T07:16:14;17.10;99.90
1766;DHT22;880;52.452;8.656;2023-08-01T07:18:42;17.20;99.90
1766;DHT22;880;52.452;8.656;2023-08-01T07:21:12;17.20;99.90
1766;DHT22;880;52.452;8.656;2023-08-01T07:23:39;17.30;99.90
1766;DHT22;880;52.452;8.656;2023-08-01T07:26:06;17.40;99.90
1766;DHT22;880;52.452;8.656;2023-08-01T07:28:33;17.30;99.90
1766;DHT22;880;52.452;8.656;2023-08-01T07:31:00;17.30;99.90
1766;DHT22;880;52.452;8.656;2023-08-01T07:33:28;17.20;99.90
1766;DHT22;880;52.452;8.656;2023-08-01T07:35:56;17.20;99.90
1766;DHT22;880;52.452;8.656;2023-08-01T07:38:23;17.10;99.90
1766;DHT22;880;52.452;8.656;2023-08-01T07:40:50;17.10;99.90
1766;DHT22;880;52.452;8.656;2023-08-01T07:43:17;17.10;99.90
1766;DHT22;880;52.452;8.656;2023-08-01T07:45:45;17.20;99.90
1766;DHT22;880;52.452;8.656;2023-08-01T07:48:16;17.40;99.90
1766;DHT22;880;52.452;8.656;2023-08-01T07:50:43;17.50;99.90
1766;DHT22;880;52.452;8.656;2023-08-01T07:53:10;17.60;99.90
1766;DHT22;880;52.452;8.656;2023-08-01T07:55:37;17.70;99.90
1766;DHT22;880;52.452;8.656;2023-08-01T07:58:04;17.60;99.90
1766;DHT22;880;52.452;8.656;2023-08-01T08:00:31;17.60;99.90
1766;DHT22;880;52.452;8.656;2023-08-01T08:02:58;17.50;99.90
1766;DHT22;880;52.452;8.656;2023-08-01T08:05:25;17.40;99.90
1766;DHT22;880;52.452;8.656;2023-08-01T08:07:52;17.40;99.90
1766;DHT22;880;52.452;8.656;2023-08-01T08:10:20;17.40;99.90
1766;DHT22;880;52.452;8.656;2023-08-01T08:12:47;17.40;99.90
1766;DHT22;880;52.452;8.656;2023-08-01T08:15:14;17.50;99.90
1766;DHT22;880;52.452;8.656;2023-08-01T08:17:42;17.50;99.90
1766;DHT22;880;52.452;8.656;2023-08-01T08:20:09;17.60;99.90
1766;DHT22;880;52.452;8.656;2023-08-01T08:22:36;17.60;99.90
1766;DHT22;880;52.452;8.656;2023-08-01T08:25:03;17.60;99.90
1766;DHT22;880;52.452;8.656;2023-08-01T08:27:31;17.70;99.90
1766;DHT22;880;52.452;8.656;2023-08-01T08:29:57;17.70;99.90
1766;DHT22;880;52.452;8.656;2023-08-01T08:32:25;17.70;99.90
1766;DHT22;880;52.452;8.656;2023-08-01T08:34:52;17.70;99.90
1766;DHT22;880;52.452;8.656;2023-08-01T08:37:19;17.70;99.90
1766;DHT22;880;52.452;8.656;2023-08-01T08:39:46;17.50;99.90
1766;DHT22;880;52.452;8.656;2023-08-01T08:42:13;17.60;99.90
1766;DHT22;880;52.452;8.656;2023-08-01T08:44:43;17.70;99.90
1766;DHT22;880;52.452;8.656;2023-08-01T08:47:11;17.90;99.90
1766;DHT22;880;52.452;8.656;2023-08-01T08:49:40;18.10;99.90
1766;DHT22;880;52.452;8.656;2023-08-01T08:52:09;18.40;99.90
1766;DHT22;880;52.452;8.656;2023-08-01T08:54:36;18.50;99.90
1766;DHT22;880;52.452;8.656;2023-08-01T08:57:07;18.70;99.90
1766;DHT22;880;52.452;8.656;2023-08-01T08:59:34;18.90;99.90
1766;DHT22;880;52.452;8.656;2023-08-01T09:02:02;19.10;99.90
1766;DHT22;880;52.452;8.656;2023-08-01T09:04:33;18.90;99.90
1766;DHT22;880;52.452;8.656;2023-08-01T09:07:08;18.70;99.90
1766;DHT22;880;52.452;8.656;2023-08-01T09:09:40;18.60;99.90
1766;DHT22;880;52.452;8.656;2023-08-01T09:12:08;18.60;99.90
1766;DHT22;880;52.452;8.656;2023-08-01T09:14:36;18.60;99.90
1766;DHT22;880;52.452;8.656;2023-08-01T09:17:10;18.50;99.90
1766;DHT22;880;52.452;8.656;2023-08-01T09:19:37;18.40;99.90
1766;DHT22;880;52.452;8.656;2023-08-01T09:22:10;18.40;99.90
1766;DHT22;880;52.452;8.656;2023-08-01T09:24:38;18.50;99.90
1766;DHT22;880;52.452;8.656;2023-08-01T09:27:06;18.50;99.90
1766;DHT22;880;52.452;8.656;2023-08-01T09:29:35;18.30;99.90
1766;DHT22;880;52.452;8.656;2023-08-01T09:32:12;18.20;99.90
1766;DHT22;880;52.452;8.656;2023-08-01T09:34:42;18.10;99.90
1766;DHT22;880;52.452;8.656;2023-08-01T09:37:12;18.00;99.90
1766;DHT22;880;52.452;8.656;2023-08-01T09:39:39;17.90;99.90
1766;DHT22;880;52.452;8.656;2023-08-01T09:42:06;17.80;99.90
1766;DHT22;880;52.452;8.656;2023-08-01T09:44:35;17.70;99.90
1766;DHT22;880;52.452;8.656;2023-08-01T09:47:04;17.60;99.90
1766;DHT22;880;52.452;8.656;2023-08-01T09:49:33;17.70;99.90
1766;DHT22;880;52.452;8.656;2023-08-01T09:52:03;17.60;99.90
1766;DHT22;880;52.452;8.656;2023-08-01T09:54:30;17.50;99.90
1766;DHT22;880;52.452;8.656;2023-08-01T09:56:58;17.40;99.90
1766;DHT22;880;52.452;8.656;2023-08-01T09:59:25;17.40;99.90
1766;DHT22;880;52.452;8.656;2023-08-01T10:01:54;17.40;99.90
1766;DHT22;880;52.452;8.656;2023-08-01T10:04:27;17.60;99.90
1766;DHT22;880;52.452;8.656;2023-08-01T10:07:07;18.00;99.90
1766;DHT22;880;52.452;8.656;2023-08-01T10:09:36;18.50;99.90
1766;DHT22;880;52.452;8.656;2023-08-01T10:12:05;19.00;99.90
1766;DHT22;880;52.452;8.656;2023-08-01T10:14:32;19.20;99.90
1766;DHT22;880;52.452;8.656;2023-08-01T10:17:02;19.20;99.90
1766;DHT22;880;52.452;8.656;2023-08-01T10:19:32;19.20;99.90
1766;DHT22;880;52.452;8.656;2023-08-01T10:22:00;19.00;99.90
1766;DHT22;880;52.452;8.656;2023-08-01T10:24:29;18.80;99.90
1766;DHT22;880;52.452;8.656;2023-08-01T10:26:56;18.80;99.90
1766;DHT22;880;52.452;8.656;2023-08-01T10:29:35;18.80;99.90
1766;DHT22;880;52.452;8.656;2023-08-01T10:32:02;18.60;99.90
1766;DHT22;880;52.452;8.656;2023-08-01T10:34:30;18.50;99.90
1766;DHT22;880;52.452;8.656;2023-08-01T10:36:58;18.50;99.90
1766;DHT22;880;52.452;8.656;2023-08-01T10:39:26;18.60;99.90
1766;DHT22;880;52.452;8.656;2023-08-01T10:42:03;18.80;99.90
1766;DHT22;880;52.452;8.656;2023-08-01T10:44:32;19.00;99.90
1766;DHT22;880;52.452;8.656;2023-08-01T10:47:02;19.20;99.90
1766;DHT22;880;52.452;8.656;2023-08-01T10:49:37;19.40;99.90
1766;DHT22;880;52.452;8.656;2023-08-01T10:52:25;19.40;99.90
1766;DHT22;880;52.452;8.656;2023-08-01T10:55:03;19.40;99.90
1766;DHT22;880;52.452;8.656;2023-08-01T10:57:38;19.60;99.90
1766;DHT22;880;52.452;8.656;2023-08-01T11:00:06;19.70;99.90
1766;DHT22;880;52.452;8.656;2023-08-01T11:02:36;19.90;99.90
1766;DHT22;880;52.452;8.656;2023-08-01T11:05:06;20.00;99.90
1766;DHT22;880;52.452;8.656;2023-08-01T11:07:36;20.10;99.90
1766;DHT22;880;52.452;8.656;2023-08-01T11:10:07;20.00;99.90
1766;DHT22;880;52.452;8.656;2023-08-01T11:12:37;19.90;99.90
1766;DHT22;880;52.452;8.656;2023-08-01T11:15:12;19.80;99.90
1766;DHT22;880;52.452;8.656;2023-08-01T11:17:41;19.70;99.90
1766;DHT22;880;52.452;8.656;2023-08-01T11:20:10;19.50;99.90
1766;DHT22;880;52.452;8.656;2023-08-01T11:22:49;19.30;99.90
1766;DHT22;880;52.452;8.656;2023-08-01T11:25:34;19.20;99.90
1766;DHT22;880;52.452;8.656;2023-08-01T11:28:07;19.00;99.90
1766;DHT22;880;52.452;8.656;2023-08-01T11:30:39;18.90;99.90
1766;DHT22;880;52.452;8.656;2023-08-01T11:33:20;18.80;99.90
1766;DHT22;880;52.452;8.656;2023-08-01T11:35:55;18.70;99.90
1766;DHT22;880;52.452;8.656;2023-08-01T11:38:26;18.40;99.90
1766;DHT22;880;52.452;8.656;2023-08-01T11:41:00;17.70;99.90
1766;DHT22;880;52.452;8.656;2023-08-01T11:43:42;16.90;99.90
1766;DHT22;880;52.452;8.656;2023-08-01T11:46:09;16.30;99.90
1766;DHT22;880;52.452;8.656;2023-08-01T11:48:37;16.00;99.90
1766;DHT22;880;52.452;8.656;2023-08-01T11:51:04;15.90;99.90
1766;DHT22;880;52.452;8.656;2023-08-01T11:53:31;15.80;99.90
1766;DHT22;880;52.452;8.656;2023-08-01T11:56:08;15.80;99.90
1766;DHT22;880;52.452;8.656;2023-08-01T11:58:36;15.80;99.90
1766;DHT22;880;52.452;8.656;2023-08-01T12:01:10;15.80;99.90
1766;DHT22;880;52.452;8.656;2023-08-01T12:03:46;15.90;99.90
1766;DHT22;880;52.452;8.656;2023-08-01T12:06:14;15.90;99.90
1766;DHT22;880;52.452;8.656;2023-08-01T12:08:43;16.00;99.90
1766;DHT22;880;52.452;8.656;2023-08-01T12:16:42;16.00;99.90
1766;DHT22;880;52.452;8.656;2023-08-01T12:19:18;16.10;99.90
1766;DHT22;880;52.452;8.656;2023-08-01T12:21:46;16.10;99.90
1766;DHT22;880;52.452;8.656;2023-08-01T12:24:14;16.10;99.90
1766;DHT22;880;52.452;8.656;2023-08-01T12:26:41;16.10;99.90
1766;DHT22;880;52.452;8.656;2023-08-01T12:29:08;16.10;99.90
1766;DHT22;880;52.452;8.656;2023-08-01T12:31:37;16.20;99.90
1766;DHT22;880;52.452;8.656;2023-08-01T12:34:04;16.20;99.90
1766;DHT22;880;52.452;8.656;2023-08-01T12:36:31;16.30;99.90
1766;DHT22;880;52.452;8.656;2023-08-01T12:38:58;16.30;99.90
1766;DHT22;880;52.452;8.656;2023-08-01T12:41:25;16.40;99.90
1766;DHT22;880;52.452;8.656;2023-08-01T12:43:52;16.60;99.90
1766;DHT22;880;52.452;8.656;2023-08-01T12:46:19;16.80;99.90
1766;DHT22;880;52.452;8.656;2023-08-01T12:48:46;17.00;99.90
1766;DHT22;880;52.452;8.656;2023-08-01T12:51:13;17.40;99.90
1766;DHT22;880;52.452;8.656;2023-08-01T12:53:41;17.60;99.90
1766;DHT22;880;52.452;8.656;2023-08-01T12:56:11;17.90;99.90
1766;DHT22;880;52.452;8.656;2023-08-01T12:58:38;18.20;99.90
1766;DHT22;880;52.452;8.656;2023-08-01T13:01:06;18.30;99.90
1766;DHT22;880;52.452;8.656;2023-08-01T13:03:33;18.30;99.90
1766;DHT22;880;52.452;8.656;2023-08-01T13:06:00;18.40;99.90
1766;DHT22;880;52.452;8.656;2023-08-01T13:08:27;18.60;99.90
1766;DHT22;880;52.452;8.656;2023-08-01T13:10:56;18.90;99.90
1766;DHT22;880;52.452;8.656;2023-08-01T13:13:26;19.30;99.90
1766;DHT22;880;52.452;8.656;2023-08-01T13:15:53;19.60;99.90
1766;DHT22;880;52.452;8.656;2023-08-01T13:18:20;19.90;99.90
1766;DHT22;880;52.452;8.656;2023-08-01T13:20:47;20.10;99.90
1766;DHT22;880;52.452;8.656;2023-08-01T13:23:14;20.20;99.90
1766;DHT22;880;52.452;8.656;2023-08-01T13:25:41;20.20;99.90
1766;DHT22;880;52.452;8.656;2023-08-01T13:28:08;20.20;99.90
1766;DHT22;880;52.452;8.656;2023-08-01T13:30:35;20.30;99.90
1766;DHT22;880;52.452;8.656;2023-08-01T13:33:02;20.30;99.90
1766;DHT22;880;52.452;8.656;2023-08-01T13:35:29;20.20;99.90
1766;DHT22;880;52.452;8.656;2023-08-01T13:37:56;20.10;99.90
1766;DHT22;880;52.452;8.656;2023-08-01T13:40:25;20.20;99.90
1766;DHT22;880;52.452;8.656;2023-08-01T13:42:52;20.50;99.90
1766;DHT22;880;52.452;8.656;2023-08-01T13:45:19;20.80;99.90
1766;DHT22;880;52.452;8.656;2023-08-01T13:47:46;21.00;99.90
1766;DHT22;880;52.452;8.656;2023-08-01T13:50:13;21.00;99.90
1766;DHT22;880;52.452;8.656;2023-08-01T13:52:41;20.90;99.90
1766;DHT22;880;52.452;8.656;2023-08-01T13:55:08;20.90;99.90
1766;DHT22;880;52.452;8.656;2023-08-01T13:57:36;20.90;99.90
1766;DHT22;880;52.452;8.656;2023-08-01T14:00:03;20.90;99.90
1766;DHT22;880;52.452;8.656;2023-08-01T14:02:41;20.90;99.90
1766;DHT22;880;52.452;8.656;2023-08-01T14:05:09;21.00;99.90
1766;DHT22;880;52.452;8.656;2023-08-01T14:07:36;21.10;99.90
1766;DHT22;880;52.452;8.656;2023-08-01T14:10:08;21.30;99.90
1766;DHT22;880;52.452;8.656;2023-08-01T14:12:36;21.50;99.90
1766;DHT22;880;52.452;8.656;2023-08-01T14:15:03;21.70;99.90
1766;DHT22;880;52.452;8.656;2023-08-01T14:17:31;21.90;99.90
1766;DHT22;880;52.452;8.656;2023-08-01T14:19:58;22.00;99.90
1766;DHT22;880;52.452;8.656;2023-08-01T14:22:26;22.00;99.90
1766;DHT22;880;52.452;8.656;2023-08-01T14:24:53;22.00;99.90
1766;DHT22;880;52.452;8.656;2023-08-01T14:27:20;21.90;99.90
1766;DHT22;880;52.452;8.656;2023-08-01T14:29:47;21.90;99.90
1766;DHT22;880;52.452;8.656;2023-08-01T14:32:18;21.90;99.90
1766;DHT22;880;52.452;8.656;2023-08-01T14:34:45;22.10;99.90
1766;DHT22;880;52.452;8.656;2023-08-01T14:37:12;22.10;99.90
1766;DHT22;880;52.452;8.656;2023-08-01T14:39:39;21.90;99.90
1766;DHT22;880;52.452;8.656;2023-08-01T14:42:06;21.80;99.90
1766;DHT22;880;52.452;8.656;2023-08-01T14:44:33;21.70;99.90
1766;DHT22;880;52.452;8.656;2023-08-01T14:47:00;21.50;99.90
1766;DHT22;880;52.452;8.656;2023-08-01T14:49:27;21.50;99.90
1766;DHT22;880;52.452;8.656;2023-08-01T14:51:56;21.50;99.90
1766;DHT22;880;52.452;8.656;2023-08-01T14:54:23;21.40;99.90
1766;DHT22;880;52.452;8.656;2023-08-01T14:57:07;21.40;99.90
1766;DHT22;880;52.452;8.656;2023-08-01T14:59:34;21.50;99.90
1766;DHT22;880;52.452;8.656;2023-08-01T15:02:02;21.40;99.90
1766;DHT22;880;52.452;8.656;2023-08-01T15:04:29;21.50;99.90
1766;DHT22;880;52.452;8.656;2023-08-01T15:06:56;21.60;99.90
1766;DHT22;880;52.452;8.656;2023-08-01T15:09:24;21.80;99.90
1766;DHT22;880;52.452;8.656;2023-08-01T15:11:50;21.90;99.90
1766;DHT22;880;52.452;8.656;2023-08-01T15:14:17;21.80;99.90
1766;DHT22;880;52.452;8.656;2023-08-01T15:16:44;21.80;99.90
1766;DHT22;880;52.452;8.656;2023-08-01T15:19:11;21.80;99.90
1766;DHT22;880;52.452;8.656;2023-08-01T15:21:38;21.80;99.90
1766;DHT22;880;52.452;8.656;2023-08-01T15:24:06;21.70;99.90
1766;DHT22;880;52.452;8.656;2023-08-01T15:26:33;21.50;99.90
1766;DHT22;880;52.452;8.656;2023-08-01T15:29:00;21.30;99.90
1766;DHT22;880;52.452;8.656;2023-08-01T15:31:27;21.20;99.90
1766;DHT22;880;52.452;8.656;2023-08-01T15:33:55;21.10;99.90
1766;DHT22;880;52.452;8.656;2023-08-01T15:36:29;21.10;99.90
1766;DHT22;880;52.452;8.656;2023-08-01T15:38:56;21.10;99.90
1766;DHT22;880;52.452;8.656;2023-08-01T15:41:25;21.10;99.90
1766;DHT22;880;52.452;8.656;2023-08-01T15:43:53;21.40;99.90
1766;DHT22;880;52.452;8.656;2023-08-01T15:46:20;21.60;99.90
1766;DHT22;880;52.452;8.656;2023-08-01T15:48:47;21.70;99.90
1766;DHT22;880;52.452;8.656;2023-08-01T15:51:14;21.70;99.90
1766;DHT22;880;52.452;8.656;2023-08-01T15:53:41;21.50;99.90
1766;DHT22;880;52.452;8.656;2023-08-01T15:56:08;21.40;99.90
1766;DHT22;880;52.452;8.656;2023-08-01T15:58:38;21.50;99.90
1766;DHT22;880;52.452;8.656;2023-08-01T16:01:05;21.50;99.90
1766;DHT22;880;52.452;8.656;2023-08-01T16:03:36;21.60;99.90
1766;DHT22;880;52.452;8.656;2023-08-01T16:06:05;21.70;99.90
1766;DHT22;880;52.452;8.656;2023-08-01T16:08:32;21.70;99.90
1766;DHT22;880;52.452;8.656;2023-08-01T16:10:59;21.60;99.90
1766;DHT22;880;52.452;8.656;2023-08-01T16:13:26;21.40;99.90
1766;DHT22;880;52.452;8.656;2023-08-01T16:15:54;21.30;99.90
1766;DHT22;880;52.452;8.656;2023-08-01T16:18:21;21.10;99.90
1766;DHT22;880;52.452;8.656;2023-08-01T16:20:48;20.90;99.90
1766;DHT22;880;52.452;8.656;2023-08-01T16:23:15;20.80;99.90
1766;DHT22;880;52.452;8.656;2023-08-01T16:25:42;20.60;99.90
1766;DHT22;880;52.452;8.656;2023-08-01T16:28:09;20.50;99.90